sensor_id;sensor_type;location;lat;lon;timestamp;pressure;altitude;pressure_sealevel;temperature;humidity
8697;BME280;4385;48.848;8.924;2023-03-04T00:01:17;97901.59;;;15.75;100.00
8697;BME280;4385;48.848;8.924;2023-03-04T00:03:43;97906.69;;;15.74;100.00
8697;BME280;4385;48.848;8.924;2023-03-04T00:06:08;97910.09;;;15.71;100.00
8697;BME280;4385;48.848;8.924;2023-03-04T00:08:34;97904.16;;;15.72;100.00
8697;BME280;4385;48.848;8.924;2023-03-04T00:10:59;97905.88;;;15.70;100.00
8697;BME280;4385;48.848;8.924;2023-03-04T00:13:25;97903.34;;;15.70;100.00
8697;BME280;4385;48.848;8.924;2023-03-04T00:15:50;97900.81;;;15.70;100.00
8697;BME280;4385;48.848;8.924;2023-03-04T00:18:16;97904.19;;;15.70;100.00
8697;BME280;4385;48.848;8.924;2023-03-04T00:20:42;97901.63;;;15.69;100.00
8697;BME280;4385;48.848;8.924;2023-03-04T00:23:07;97895.72;;;15.68;100.00
8697;BME280;4385;48.848;8.924;2023-03-04T00:25:32;97898.28;;;15.68;100.00
8697;BME280;4385;48.848;8.924;2023-03-04T00:27:58;97901.63;;;15.69;100.00
8697;BME280;4385;48.848;8.924;2023-03-04T00:30:24;97903.34;;;15.68;100.00
8697;BME280;4385;48.848;8.924;2023-03-04T00:32:49;97899.09;;;15.69;100.00
8697;BME280;4385;48.848;8.924;2023-03-04T00:35:15;97898.28;;;15.70;100.00
8697;BME280;4385;48.848;8.924;2023-03-04T00:37:40;97904.19;;;15.70;100.00
8697;BME280;4385;48.848;8.924;2023-03-04T00:40:07;97907.56;;;15.69;100.00
8697;BME280;4385;48.848;8.924;2023-03-04T00:42:32;97909.25;;;15.69;100.00
8697;BME280;4385;48.848;8.924;2023-03-04T00:44:57;97911.81;;;15.66;100.00
8697;BME280;4385;48.848;8.924;2023-03-04T00:47:23;97901.66;;;15.66;100.00
8697;BME280;4385;48.848;8.924;2023-03-04T00:49:48;97901.66;;;15.64;100.00
8697;BME280;4385;48.848;8.924;2023-03-04T00:52:13;97906.75;;;15.63;100.00
8697;BME280;4385;48.848;8.924;2023-03-04T00:54:38;97896.59;;;15.59;100.00
8697;BME280;4385;48.848;8.924;2023-03-04T00:57:04;97903.38;;;15.59;100.00
8697;BME280;4385;48.848;8.924;2023-03-04T00:59:29;97903.41;;;15.57;100.00
8697;BME280;4385;48.848;8.924;2023-03-04T01:01:54;97903.41;;;15.57;100.00
8697;BME280;4385;48.848;8.924;2023-03-04T01:04:20;97900.88;;;15.56;100.00
8697;BME280;4385;48.848;8.924;2023-03-04T01:06:45;97898.31;;;15.54;100.00
8697;BME280;4385;48.848;8.924;2023-03-04T01:09:10;97899.16;;;15.53;100.00
8697;BME280;4385;48.848;8.924;2023-03-04T01:11:35;97897.47;;;15.52;100.00
8697;BME280;4385;48.848;8.924;2023-03-04T01:14:01;97896.63;;;15.53;100.00
8697;BME280;4385;48.848;8.924;2023-03-04T01:16:26;97899.16;;;15.53;100.00
8697;BME280;4385;48.848;8.924;2023-03-04T01:18:51;97898.31;;;15.54;100.00
8697;BME280;4385;48.848;8.924;2023-03-04T01:21:16;97894.06;;;15.55;100.00
8697;BME280;4385;48.848;8.924;2023-03-04T01:23:42;97895.78;;;15.54;100.00
8697;BME280;4385;48.848;8.924;2023-03-04T01:26:07;97889.00;;;15.55;100.00
8697;BME280;4385;48.848;8.924;2023-03-04T01:28:32;97883.91;;;15.55;100.00
8697;BME280;4385;48.848;8.924;2023-03-04T01:31:01;97881.38;;;15.56;100.00
8697;BME280;4385;48.848;8.924;2023-03-04T01:33:27;97888.16;;;15.59;100.00
8697;BME280;4385;48.848;8.924;2023-03-04T01:35:52;97888.16;;;15.59;100.00
8697;BME280;4385;48.848;8.924;2023-03-04T01:38:17;97879.69;;;15.58;100.00
8697;BME280;4385;48.848;8.924;2023-03-04T01:40:43;97883.91;;;15.58;100.00
8697;BME280;4385;48.848;8.924;2023-03-04T01:43:16;97881.38;;;15.56;100.00
8697;BME280;4385;48.848;8.924;2023-03-04T01:45:44;97885.63;;;15.54;100.00
8697;BME280;4385;48.848;8.924;2023-03-04T01:48:11;97889.00;;;15.53;100.00
8697;BME280;4385;48.848;8.924;2023-03-04T01:50:40;97883.09;;;15.51;100.00
8697;BME280;4385;48.848;8.924;2023-03-04T01:53:06;97883.94;;;15.50;100.00
8697;BME280;4385;48.848;8.924;2023-03-04T01:55:31;97889.88;;;15.49;100.00
8697;BME280;4385;48.848;8.924;2023-03-04T01:57:57;97885.66;;;15.48;100.00
8697;BME280;4385;48.848;8.924;2023-03-04T02:00:31;97883.94;;;15.47;100.00
8697;BME280;4385;48.848;8.924;2023-03-04T02:03:04;97885.66;;;15.46;100.00
8697;BME280;4385;48.848;8.924;2023-03-04T02:05:32;97884.81;;;15.46;100.00
8697;BME280;4385;48.848;8.924;2023-03-04T02:07:59;97887.34;;;15.44;100.00
8697;BME280;4385;48.848;8.924;2023-03-04T02:10:26;97882.25;;;15.44;100.00
8697;BME280;4385;48.848;8.924;2023-03-04T02:12:52;97874.66;;;15.43;100.00
8697;BME280;4385;48.848;8.924;2023-03-04T02:15:18;97873.81;;;15.42;100.00
8697;BME280;4385;48.848;8.924;2023-03-04T02:17:43;97867.03;;;15.41;100.00
8697;BME280;4385;48.848;8.924;2023-03-04T02:28:27;97862.81;;;15.39;100.00
8697;BME280;4385;48.848;8.924;2023-03-04T02:30:52;97867.06;;;15.38;100.00
8697;BME280;4385;48.848;8.924;2023-03-04T02:33:17;97866.19;;;15.38;100.00
8697;BME280;4385;48.848;8.924;2023-03-04T02:35:43;97861.13;;;15.38;100.00
8697;BME280;4385;48.848;8.924;2023-03-04T02:38:10;97863.66;;;15.39;100.00
8697;BME280;4385;48.848;8.924;2023-03-04T02:40:36;97860.28;;;15.37;100.00
8697;BME280;4385;48.848;8.924;2023-03-04T02:43:03;97867.91;;;15.39;100.00
8697;BME280;4385;48.848;8.924;2023-03-04T02:48:02;97869.59;;;15.37;100.00
8697;BME280;4385;48.848;8.924;2023-03-04T02:50:30;97867.91;;;15.37;100.00
8697;BME280;4385;48.848;8.924;2023-03-04T02:52:58;97863.66;;;15.34;100.00
8697;BME280;4385;48.848;8.924;2023-03-04T02:55:23;97863.66;;;15.34;100.00
8697;BME280;4385;48.848;8.924;2023-03-04T02:57:48;97874.69;;;15.33;100.00
8697;BME280;4385;48.848;8.924;2023-03-04T03:00:14;97864.53;;;15.30;100.00
8697;BME280;4385;48.848;8.924;2023-03-04T03:02:39;97863.69;;;15.28;100.00
8697;BME280;4385;48.848;8.924;2023-03-04T03:05:04;97868.75;;;15.28;100.00
8697;BME280;4385;48.848;8.924;2023-03-04T03:07:30;97862.88;;;15.26;100.00
8697;BME280;4385;48.848;8.924;2023-03-04T03:09:55;97869.63;;;15.27;100.00
8697;BME280;4385;48.848;8.924;2023-03-04T03:12:20;97870.50;;;15.26;100.00
8697;BME280;4385;48.848;8.924;2023-03-04T03:14:46;97870.50;;;15.26;100.00
8697;BME280;4385;48.848;8.924;2023-03-04T03:17:11;97867.94;;;15.26;100.00
8697;BME280;4385;48.848;8.924;2023-03-04T03:19:36;97862.88;;;15.26;100.00
8697;BME280;4385;48.848;8.924;2023-03-04T03:22:02;97864.53;;;15.27;100.00
8697;BME280;4385;48.848;8.924;2023-03-04T03:24:27;97870.47;;;15.28;100.00
8697;BME280;4385;48.848;8.924;2023-03-04T03:26:52;97864.53;;;15.27;100.00
8697;BME280;4385;48.848;8.924;2023-03-04T03:29:17;97867.09;;;15.27;100.00
8697;BME280;4385;48.848;8.924;2023-03-04T03:31:43;97863.69;;;15.27;100.00
8697;BME280;4385;48.848;8.924;2023-03-04T03:34:08;97862.88;;;15.26;100.00
8697;BME280;4385;48.848;8.924;2023-03-04T03:36:33;97861.16;;;15.28;100.00
8697;BME280;4385;48.848;8.924;2023-03-04T03:38:58;97857.78;;;15.28;100.00
8697;BME280;4385;48.848;8.924;2023-03-04T03:41:24;97851.00;;;15.28;100.00
8697;BME280;4385;48.848;8.924;2023-03-04T03:43:49;97856.06;;;15.28;100.00
8697;BME280;4385;48.848;8.924;2023-03-04T03:46:14;97864.53;;;15.27;100.00
8697;BME280;4385;48.848;8.924;2023-03-04T03:48:40;97857.78;;;15.26;100.00
8697;BME280;4385;48.848;8.924;2023-03-04T03:51:05;97854.41;;;15.24;100.00
8697;BME280;4385;48.848;8.924;2023-03-04T03:53:30;97855.28;;;15.21;100.00
8697;BME280;4385;48.848;8.924;2023-03-04T03:55:55;97860.34;;;15.20;100.00
8697;BME280;4385;48.848;8.924;2023-03-04T03:58:21;97862.88;;;15.20;100.00
8697;BME280;4385;48.848;8.924;2023-03-04T04:00:47;97862.91;;;15.17;100.00
8697;BME280;4385;48.848;8.924;2023-03-04T04:03:14;97862.91;;;15.15;100.00
8697;BME280;4385;48.848;8.924;2023-03-04T04:05:40;97859.50;;;15.15;100.00
8697;BME280;4385;48.848;8.924;2023-03-04T04:08:05;97858.66;;;15.14;100.00
8697;BME280;4385;48.848;8.924;2023-03-04T04:10:30;97857.81;;;15.14;100.00
8697;BME280;4385;48.848;8.924;2023-03-04T04:12:55;97856.13;;;15.13;100.00
8697;BME280;4385;48.848;8.924;2023-03-04T04:15:21;97858.66;;;15.13;100.00
8697;BME280;4385;48.848;8.924;2023-03-04T04:17:46;97856.97;;;15.13;100.00
8697;BME280;4385;48.848;8.924;2023-03-04T04:20:12;97857.81;;;15.14;100.00
8697;BME280;4385;48.848;8.924;2023-03-04T04:22:38;97856.13;;;15.13;100.00
8697;BME280;4385;48.848;8.924;2023-03-04T04:25:03;97857.84;;;15.12;100.00
8697;BME280;4385;48.848;8.924;2023-03-04T04:27:29;97861.19;;;15.13;100.00
8697;BME280;4385;48.848;8.924;2023-03-04T04:29:54;97859.50;;;15.15;100.00
8697;BME280;4385;48.848;8.924;2023-03-04T04:32:19;97861.19;;;15.16;100.00
8697;BME280;4385;48.848;8.924;2023-03-04T04:34:45;97863.72;;;15.16;100.00
8697;BME280;4385;48.848;8.924;2023-03-04T04:37:10;97861.19;;;15.17;100.00
8697;BME280;4385;48.848;8.924;2023-03-04T04:39:35;97867.97;;;15.17;100.00
8697;BME280;4385;48.848;8.924;2023-03-04T04:42:01;97874.72;;;15.18;100.00
8697;BME280;4385;48.848;8.924;2023-03-04T04:44:27;97873.06;;;15.17;100.00
8697;BME280;4385;48.848;8.924;2023-03-04T04:46:52;97877.28;;;15.16;100.00
8697;BME280;4385;48.848;8.924;2023-03-04T04:49:18;97867.97;;;15.14;100.00
8697;BME280;4385;48.848;8.924;2023-03-04T04:51:43;97866.28;;;15.13;100.00
8697;BME280;4385;48.848;8.924;2023-03-04T04:54:13;97871.34;;;15.11;100.00
8697;BME280;4385;48.848;8.924;2023-03-04T04:56:38;97862.06;;;15.08;100.00
8697;BME280;4385;48.848;8.924;2023-03-04T04:59:05;97862.91;;;15.07;100.00
8697;BME280;4385;48.848;8.924;2023-03-04T05:01:33;97863.75;;;15.06;100.00
8697;BME280;4385;48.848;8.924;2023-03-04T05:03:58;97868.81;;;15.05;100.00
8697;BME280;4385;48.848;8.924;2023-03-04T05:06:24;97869.69;;;15.02;100.00
8697;BME280;4385;48.848;8.924;2023-03-04T05:08:50;97871.38;;;15.03;100.00
8697;BME280;4385;48.848;8.924;2023-03-04T05:11:16;97872.22;;;15.04;100.00
8697;BME280;4385;48.848;8.924;2023-03-04T05:13:43;97874.75;;;15.05;100.00
8697;BME280;4385;48.848;8.924;2023-03-04T05:16:08;97874.75;;;15.05;100.00
8697;BME280;4385;48.848;8.924;2023-03-04T05:18:34;97887.44;;;15.07;100.00
8697;BME280;4385;48.848;8.924;2023-03-04T05:21:01;97883.22;;;15.07;100.00
8697;BME280;4385;48.848;8.924;2023-03-04T05:23:28;97883.22;;;15.07;100.00
8697;BME280;4385;48.848;8.924;2023-03-04T05:25:54;97887.44;;;15.05;100.00
8697;BME280;4385;48.848;8.924;2023-03-04T05:28:19;97885.78;;;15.06;100.00
8697;BME280;4385;48.848;8.924;2023-03-04T05:30:45;97885.78;;;15.04;100.00
8697;BME280;4385;48.848;8.924;2023-03-04T05:33:13;97883.22;;;15.04;100.00
8697;BME280;4385;48.848;8.924;2023-03-04T05:35:40;97884.06;;;15.05;100.00
8697;BME280;4385;48.848;8.924;2023-03-04T05:38:07;97881.53;;;15.03;100.00
8697;BME280;4385;48.848;8.924;2023-03-04T05:40:33;97882.38;;;15.01;100.00
8697;BME280;4385;48.848;8.924;2023-03-04T05:42:59;97884.06;;;15.00;100.00
8697;BME280;4385;48.848;8.924;2023-03-04T05:45:25;97886.59;;;14.99;100.00
8697;BME280;4385;48.848;8.924;2023-03-04T05:47:51;97889.16;;;14.99;100.00
8697;BME280;4385;48.848;8.924;2023-03-04T05:50:17;97887.47;;;14.98;100.00
8697;BME280;4385;48.848;8.924;2023-03-04T05:52:42;97884.06;;;14.97;100.00
8697;BME280;4385;48.848;8.924;2023-03-04T05:55:08;97885.78;;;14.95;100.00
8697;BME280;4385;48.848;8.924;2023-03-04T05:57:33;97888.31;;;14.95;100.00
8697;BME280;4385;48.848;8.924;2023-03-04T05:59:59;97893.41;;;14.95;100.00
8697;BME280;4385;48.848;8.924;2023-03-04T06:02:24;97886.63;;;14.94;100.00
8697;BME280;4385;48.848;8.924;2023-03-04T06:04:49;97896.75;;;14.94;100.00
8697;BME280;4385;48.848;8.924;2023-03-04T06:07:15;97899.31;;;14.94;100.00
8697;BME280;4385;48.848;8.924;2023-03-04T06:09:40;97901.03;;;14.92;100.00
8697;BME280;4385;48.848;8.924;2023-03-04T06:12:05;97906.91;;;14.91;100.00
8697;BME280;4385;48.848;8.924;2023-03-04T06:14:31;97901.84;;;14.91;100.00
8697;BME280;4385;48.848;8.924;2023-03-04T06:16:57;97912.00;;;14.92;100.00
8697;BME280;4385;48.848;8.924;2023-03-04T06:19:22;97913.69;;;14.95;100.00
8697;BME280;4385;48.848;8.924;2023-03-04T06:21:47;97920.44;;;14.99;100.00
8697;BME280;4385;48.848;8.924;2023-03-04T06:24:12;97923.84;;;15.04;100.00
8697;BME280;4385;48.848;8.924;2023-03-04T06:26:38;97918.75;;;15.07;100.00
8697;BME280;4385;48.848;8.924;2023-03-04T06:29:04;97926.38;;;15.14;100.00
8697;BME280;4385;48.848;8.924;2023-03-04T06:31:30;97931.44;;;15.17;100.00
8697;BME280;4385;48.848;8.924;2023-03-04T06:33:55;97931.44;;;15.20;100.00
8697;BME280;4385;48.848;8.924;2023-03-04T06:36:20;97928.91;;;15.20;100.00
8697;BME280;4385;48.848;8.924;2023-03-04T06:38:46;97930.56;;;15.21;100.00
8697;BME280;4385;48.848;8.924;2023-03-04T06:41:12;97939.03;;;15.23;100.00
8697;BME280;4385;48.848;8.924;2023-03-04T06:43:38;97934.78;;;15.24;100.00
8697;BME280;4385;48.848;8.924;2023-03-04T06:46:05;97936.50;;;15.25;100.00
8697;BME280;4385;48.848;8.924;2023-03-04T06:48:30;97944.13;;;15.26;100.00
8697;BME280;4385;48.848;8.924;2023-03-04T06:50:55;97947.47;;;15.25;100.00
8697;BME280;4385;48.848;8.924;2023-03-04T06:53:20;97944.13;;;15.25;100.00
8697;BME280;4385;48.848;8.924;2023-03-04T06:55:46;97950.88;;;15.23;100.00
8697;BME280;4385;48.848;8.924;2023-03-04T06:58:12;97947.50;;;15.20;100.00
8697;BME280;4385;48.848;8.924;2023-03-04T07:00:37;97953.44;;;15.19;100.00
8697;BME280;4385;48.848;8.924;2023-03-04T07:03:03;97951.75;;;15.17;100.00
8697;BME280;4385;48.848;8.924;2023-03-04T07:05:28;97947.50;;;15.19;100.00
8697;BME280;4385;48.848;8.924;2023-03-04T07:07:53;97957.66;;;15.20;100.00
8697;BME280;4385;48.848;8.924;2023-03-04T07:10:19;97949.22;;;15.20;100.00
8697;BME280;4385;48.848;8.924;2023-03-04T07:12:44;97950.03;;;15.20;100.00
8697;BME280;4385;48.848;8.924;2023-03-04T07:15:10;97950.88;;;15.23;100.00
8697;BME280;4385;48.848;8.924;2023-03-04T07:17:36;97955.97;;;15.24;100.00
8697;BME280;4385;48.848;8.924;2023-03-04T07:20:02;97966.97;;;15.25;100.00
8697;BME280;4385;48.848;8.924;2023-03-04T07:22:27;97959.34;;;15.26;100.00
8697;BME280;4385;48.848;8.924;2023-03-04T07:24:53;97958.50;;;15.27;100.00
8697;BME280;4385;48.848;8.924;2023-03-04T07:27:18;97956.81;;;15.29;100.00
8697;BME280;4385;48.848;8.924;2023-03-04T07:29:43;97962.72;;;15.31;100.00
8697;BME280;4385;48.848;8.924;2023-03-04T07:32:10;97965.25;;;15.34;100.00
8697;BME280;4385;48.848;8.924;2023-03-04T07:34:36;97976.25;;;15.37;100.00
8697;BME280;4385;48.848;8.924;2023-03-04T07:37:01;97971.19;;;15.38;100.00
8697;BME280;4385;48.848;8.924;2023-03-04T07:39:27;97977.09;;;15.40;100.00
8697;BME280;4385;48.848;8.924;2023-03-04T07:41:52;97973.72;;;15.41;100.00
8697;BME280;4385;48.848;8.924;2023-03-04T07:44:17;97978.78;;;15.40;100.00
8697;BME280;4385;48.848;8.924;2023-03-04T07:46:42;97977.09;;;15.40;100.00
8697;BME280;4385;48.848;8.924;2023-03-04T07:49:10;97988.09;;;15.38;100.00
8697;BME280;4385;48.848;8.924;2023-03-04T07:51:36;97986.41;;;15.37;100.00
8697;BME280;4385;48.848;8.924;2023-03-04T07:54:02;97993.19;;;15.34;100.00
8697;BME280;4385;48.848;8.924;2023-03-04T07:56:29;97989.81;;;15.32;100.00
8697;BME280;4385;48.848;8.924;2023-03-04T07:58:55;97990.66;;;15.30;100.00
8697;BME280;4385;48.848;8.924;2023-03-04T08:01:32;97986.44;;;15.27;100.00
8697;BME280;4385;48.848;8.924;2023-03-04T08:03:58;97989.81;;;15.26;100.00
8697;BME280;4385;48.848;8.924;2023-03-04T08:06:24;97988.09;;;15.27;100.00
8697;BME280;4385;48.848;8.924;2023-03-04T08:08:56;97992.34;;;15.28;100.00
8697;BME280;4385;48.848;8.924;2023-03-04T08:11:21;97993.19;;;15.30;100.00
8697;BME280;4385;48.848;8.924;2023-03-04T08:13:47;97999.13;;;15.35;100.00
8697;BME280;4385;48.848;8.924;2023-03-04T08:16:17;98000.78;;;15.39;100.00
8697;BME280;4385;48.848;8.924;2023-03-04T08:18:44;98001.63;;;15.43;100.00
8697;BME280;4385;48.848;8.924;2023-03-04T08:21:12;98005.03;;;15.48;100.00
8697;BME280;4385;48.848;8.924;2023-03-04T08:23:38;98008.38;;;15.53;100.00
8697;BME280;4385;48.848;8.924;2023-03-04T08:26:08;98005.00;;;15.57;100.00
8697;BME280;4385;48.848;8.924;2023-03-04T08:28:34;98005.81;;;15.63;100.00
8697;BME280;4385;48.848;8.924;2023-03-04T08:30:59;98015.97;;;15.66;100.00
8697;BME280;4385;48.848;8.924;2023-03-04T08:33:24;98010.91;;;15.67;100.00
8697;BME280;4385;48.848;8.924;2023-03-04T08:35:50;98013.44;;;15.69;100.00
8697;BME280;4385;48.848;8.924;2023-03-04T08:38:15;98012.59;;;15.70;100.00
8697;BME280;4385;48.848;8.924;2023-03-04T08:40:40;98011.75;;;15.71;100.00
8697;BME280;4385;48.848;8.924;2023-03-04T08:43:05;98008.34;;;15.72;100.00
8697;BME280;4385;48.848;8.924;2023-03-04T08:45:31;98010.88;;;15.72;100.00
8697;BME280;4385;48.848;8.924;2023-03-04T08:47:56;98010.06;;;15.70;100.00
8697;BME280;4385;48.848;8.924;2023-03-04T08:50:21;98005.81;;;15.70;100.00
8697;BME280;4385;48.848;8.924;2023-03-04T08:52:47;98003.25;;;15.72;100.00
8697;BME280;4385;48.848;8.924;2023-03-04T08:55:12;98011.75;;;15.71;100.00
8697;BME280;4385;48.848;8.924;2023-03-04T08:57:37;98010.91;;;15.67;100.00
8697;BME280;4385;48.848;8.924;2023-03-04T09:00:03;98006.69;;;15.62;100.00
8697;BME280;4385;48.848;8.924;2023-03-04T09:02:28;98003.28;;;15.59;100.00
8697;BME280;4385;48.848;8.924;2023-03-04T09:04:54;98005.00;;;15.61;100.00
8697;BME280;4385;48.848;8.924;2023-03-04T09:07:19;98003.28;;;15.63;100.00
8697;BME280;4385;48.848;8.924;2023-03-04T09:09:44;98011.75;;;15.66;100.00
8697;BME280;4385;48.848;8.924;2023-03-04T09:12:10;98013.44;;;15.69;100.00
8697;BME280;4385;48.848;8.924;2023-03-04T09:14:35;98008.34;;;15.70;100.00
8697;BME280;4385;48.848;8.924;2023-03-04T09:17:02;98012.59;;;15.73;100.00
8697;BME280;4385;48.848;8.924;2023-03-04T09:19:28;98010.03;;;15.76;100.00
8697;BME280;4385;48.848;8.924;2023-03-04T09:21:53;98013.41;;;15.78;100.00
8697;BME280;4385;48.848;8.924;2023-03-04T09:24:20;98014.25;;;15.80;100.00
8697;BME280;4385;48.848;8.924;2023-03-04T09:26:49;98008.31;;;15.81;100.00
8697;BME280;4385;48.848;8.924;2023-03-04T09:29:14;98014.25;;;15.83;100.00
8697;BME280;4385;48.848;8.924;2023-03-04T09:31:39;98014.25;;;15.85;100.00
8697;BME280;4385;48.848;8.924;2023-03-04T09:34:05;98012.56;;;15.86;100.00
8697;BME280;4385;48.848;8.924;2023-03-04T09:36:30;98011.69;;;15.85;100.00
8697;BME280;4385;48.848;8.924;2023-03-04T09:38:58;98005.75;;;15.86;100.00
8697;BME280;4385;48.848;8.924;2023-03-04T09:41:26;98013.38;;;15.84;100.00
8697;BME280;4385;48.848;8.924;2023-03-04T09:43:55;98010.03;;;15.82;100.00
8697;BME280;4385;48.848;8.924;2023-03-04T09:46:29;98008.31;;;15.81;100.00
8697;BME280;4385;48.848;8.924;2023-03-04T09:48:56;98007.50;;;15.81;100.00
8697;BME280;4385;48.848;8.924;2023-03-04T09:56:34;98006.66;;;15.76;100.00
8697;BME280;4385;48.848;8.924;2023-03-04T10:06:43;98012.59;;;15.73;100.00
8697;BME280;4385;48.848;8.924;2023-03-04T10:09:40;98010.88;;;15.74;100.00
8697;BME280;4385;48.848;8.924;2023-03-04T10:12:12;98016.81;;;15.74;100.00
8697;BME280;4385;48.848;8.924;2023-03-04T10:14:44;98017.66;;;15.78;100.00
8697;BME280;4385;48.848;8.924;2023-03-04T10:17:21;98018.47;;;15.81;100.00
8697;BME280;4385;48.848;8.924;2023-03-04T10:20:09;98021.00;;;15.84;100.00
8697;BME280;4385;48.848;8.924;2023-03-04T10:22:44;98006.59;;;15.90;100.00
8697;BME280;4385;48.848;8.924;2023-03-04T10:27:56;98009.16;;;15.99;100.00
8697;BME280;4385;48.848;8.924;2023-03-04T10:33:13;98009.97;;;16.07;100.00
8697;BME280;4385;48.848;8.924;2023-03-04T10:35:42;98000.66;;;16.10;100.00
8697;BME280;4385;48.848;8.924;2023-03-04T10:38:11;98004.00;;;16.12;100.00
8697;BME280;4385;48.848;8.924;2023-03-04T10:40:38;98003.19;;;16.13;100.00
8697;BME280;4385;48.848;8.924;2023-03-04T10:43:04;97998.09;;;16.13;100.00
8697;BME280;4385;48.848;8.924;2023-03-04T10:45:37;97998.09;;;16.13;100.00
8697;BME280;4385;48.848;8.924;2023-03-04T10:48:03;98000.66;;;16.11;100.00
8697;BME280;4385;48.848;8.924;2023-03-04T10:50:28;97996.38;;;16.12;100.00
8697;BME280;4385;48.848;8.924;2023-03-04T10:52:55;97994.72;;;16.11;100.00
8697;BME280;4385;48.848;8.924;2023-03-04T10:55:41;97994.72;;;16.11;100.00
8697;BME280;4385;48.848;8.924;2023-03-04T10:58:12;97986.22;;;16.08;100.00
8697;BME280;4385;48.848;8.924;2023-03-04T11:00:38;97988.78;;;16.07;100.00
8697;BME280;4385;48.848;8.924;2023-03-04T11:08:40;97982.88;;;16.06;100.00
8697;BME280;4385;48.848;8.924;2023-03-04T11:11:24;97977.78;;;16.06;100.00
8697;BME280;4385;48.848;8.924;2023-03-04T11:13:54;97983.69;;;16.08;100.00
8697;BME280;4385;48.848;8.924;2023-03-04T11:16:28;97977.78;;;16.10;100.00
8697;BME280;4385;48.848;8.924;2023-03-04T11:18:59;97971.81;;;16.11;100.00
8697;BME280;4385;48.848;8.924;2023-03-04T11:21:29;97977.75;;;16.13;100.00
8697;BME280;4385;48.848;8.924;2023-03-04T11:24:02;97976.03;;;16.16;100.00
8697;BME280;4385;48.848;8.924;2023-03-04T11:26:39;97970.91;;;16.21;100.00
8697;BME280;4385;48.848;8.924;2023-03-04T11:29:21;97979.38;;;16.23;100.00
8697;BME280;4385;48.848;8.924;2023-03-04T11:31:52;97970.91;;;16.24;100.00
8697;BME280;4385;48.848;8.924;2023-03-04T11:34:31;97979.38;;;16.25;100.00
8697;BME280;4385;48.848;8.924;2023-03-04T11:37:12;97976.84;;;16.25;100.00
8697;BME280;4385;48.848;8.924;2023-03-04T11:40:58;97964.97;;;16.24;100.00
8697;BME280;4385;48.848;8.924;2023-03-04T11:43:13;97962.44;;;16.22;100.00
8697;BME280;4385;48.848;8.924;2023-03-04T11:51:50;97961.63;;;16.17;100.00
8697;BME280;4385;48.848;8.924;2023-03-04T11:56:49;97954.03;;;16.11;100.00
8697;BME280;4385;48.848;8.924;2023-03-04T12:02:17;97955.72;;;16.08;100.00
8697;BME280;4385;48.848;8.924;2023-03-04T12:13:33;97941.38;;;15.98;100.00
8697;BME280;4385;48.848;8.924;2023-03-04T12:21:55;97916.78;;;16.06;100.00
8697;BME280;4385;48.848;8.924;2023-03-04T12:24:51;97920.91;;;16.22;100.00
8697;BME280;4385;48.848;8.924;2023-03-04T12:38:58;97907.03;;;16.66;100.00
8697;BME280;4385;48.848;8.924;2023-03-04T12:44:41;97895.06;;;16.76;100.00
8697;BME280;4385;48.848;8.924;2023-03-04T12:50:02;97895.03;;;16.82;100.00
8697;BME280;4385;48.848;8.924;2023-03-04T12:55:03;97889.97;;;16.78;100.00
8697;BME280;4385;48.848;8.924;2023-03-04T12:57:32;97887.50;;;16.70;100.00
8697;BME280;4385;48.848;8.924;2023-03-04T13:03:02;97891.06;;;16.50;100.00
8697;BME280;4385;48.848;8.924;2023-03-04T13:06:05;97899.59;;;16.40;100.00
8697;BME280;4385;48.848;8.924;2023-03-04T13:11:44;97885.31;;;16.23;95.49
8697;BME280;4385;48.848;8.924;2023-03-04T13:16:44;97882.81;;;16.12;88.54
8697;BME280;4385;48.848;8.924;2023-03-04T13:19:41;97886.25;;;16.06;86.94
8697;BME280;4385;48.848;8.924;2023-03-04T13:22:32;97872.72;;;16.01;83.88
8697;BME280;4385;48.848;8.924;2023-03-04T13:25:26;97880.38;;;15.98;82.49
8697;BME280;4385;48.848;8.924;2023-03-04T13:27:49;97875.28;;;15.95;80.14
8697;BME280;4385;48.848;8.924;2023-03-04T13:38:23;97877.91;;;15.79;77.71
8697;BME280;4385;48.848;8.924;2023-03-04T13:46:51;97881.31;;;15.66;74.48
8697;BME280;4385;48.848;8.924;2023-03-04T13:49:22;97882.22;;;15.58;74.84
8697;BME280;4385;48.848;8.924;2023-03-04T13:51:50;97870.41;;;15.53;72.64
8697;BME280;4385;48.848;8.924;2023-03-04T13:54:24;97876.31;;;15.47;72.68
8697;BME280;4385;48.848;8.924;2023-03-04T13:59:38;97882.28;;;15.41;71.30
8697;BME280;4385;48.848;8.924;2023-03-04T14:04:43;97883.16;;;15.36;69.92
8697;BME280;4385;48.848;8.924;2023-03-04T14:07:34;97873.84;;;15.33;70.53
8697;BME280;4385;48.848;8.924;2023-03-04T14:10:01;97875.56;;;15.31;70.96
8697;BME280;4385;48.848;8.924;2023-03-04T14:12:31;97872.16;;;15.30;70.33
8697;BME280;4385;48.848;8.924;2023-03-04T14:15:05;97870.47;;;15.31;69.32
8697;BME280;4385;48.848;8.924;2023-03-04T14:17:47;97870.47;;;15.32;69.17
8697;BME280;4385;48.848;8.924;2023-03-04T14:20:34;97860.31;;;15.34;70.76
8697;BME280;4385;48.848;8.924;2023-03-04T14:23:25;97862.84;;;15.36;69.90
8697;BME280;4385;48.848;8.924;2023-03-04T14:25:50;97860.28;;;15.37;70.91
8697;BME280;4385;48.848;8.924;2023-03-04T14:28:18;97855.22;;;15.39;72.22
8697;BME280;4385;48.848;8.924;2023-03-04T14:30:51;97858.56;;;15.38;71.91
8697;BME280;4385;48.848;8.924;2023-03-04T14:33:22;97849.28;;;15.33;72.05
8697;BME280;4385;48.848;8.924;2023-03-04T14:35:50;97860.31;;;15.31;70.68
8697;BME280;4385;48.848;8.924;2023-03-04T14:38:25;97856.09;;;15.25;70.50
8697;BME280;4385;48.848;8.924;2023-03-04T14:41:15;97853.56;;;15.20;68.46
8697;BME280;4385;48.848;8.924;2023-03-04T14:44:02;97850.22;;;15.14;67.59
8697;BME280;4385;48.848;8.924;2023-03-04T14:46:38;97850.22;;;15.11;67.50
8697;BME280;4385;48.848;8.924;2023-03-04T14:49:05;97844.31;;;15.05;67.78
8697;BME280;4385;48.848;8.924;2023-03-04T14:51:41;97846.84;;;15.02;67.02
8697;BME280;4385;48.848;8.924;2023-03-04T14:56:49;97835.03;;;14.92;66.44
8697;BME280;4385;48.848;8.924;2023-03-04T14:59:14;97839.25;;;14.91;66.34
8697;BME280;4385;48.848;8.924;2023-03-04T15:01:39;97831.66;;;14.93;65.67
8697;BME280;4385;48.848;8.924;2023-03-04T15:04:09;97829.09;;;14.96;65.99
8697;BME280;4385;48.848;8.924;2023-03-04T15:06:38;97830.78;;;15.00;67.15
8697;BME280;4385;48.848;8.924;2023-03-04T15:09:07;97837.53;;;15.04;68.10